createdAt,value
2019-03-06T00:00:13.316Z,0.00
2019-03-06T00:01:13.305Z,0.00
2019-03-06T00:02:13.295Z,0.00
2019-03-06T00:03:13.283Z,0.00
2019-03-06T00:04:13.292Z,0.00
2019-03-06T00:05:13.651Z,0.00
2019-03-06T00:06:16.617Z,0.00
2019-03-06T00:07:13.235Z,0.00
2019-03-06T00:08:13.237Z,0.00
2019-03-06T00:09:13.641Z,0.00
2019-03-06T00:10:13.214Z,0.00
2019-03-06T00:11:13.195Z,0.00
2019-03-06T00:12:13.182Z,0.00
2019-03-06T00:13:13.172Z,0.00
2019-03-06T00:14:13.169Z,0.00
2019-03-06T00:15:13.151Z,0.00
2019-03-06T00:16:13.664Z,0.00
2019-03-06T00:17:13.137Z,0.00
2019-03-06T00:18:13.117Z,0.00
2019-03-06T00:19:13.106Z,0.00
2019-03-06T00:20:13.149Z,0.00
2019-03-06T00:21:13.082Z,0.00
2019-03-06T00:22:13.080Z,0.00
2019-03-06T00:23:13.081Z,0.00
2019-03-06T00:24:13.074Z,0.00
2019-03-06T00:25:13.155Z,0.00
2019-03-06T00:26:13.040Z,0.00
2019-03-06T00:27:13.015Z,0.00
2019-03-06T00:28:13.010Z,0.00
2019-03-06T00:29:13.013Z,0.00
2019-03-06T00:30:13.151Z,0.00
2019-03-06T00:31:12.977Z,0.00
2019-03-06T00:32:12.962Z,0.00
2019-03-06T00:33:12.990Z,0.00
2019-03-06T00:34:12.957Z,0.00
2019-03-06T00:35:13.153Z,0.00
2019-03-06T00:36:13.159Z,0.00
2019-03-06T00:37:12.920Z,0.00
2019-03-06T00:38:12.929Z,0.00
2019-03-06T00:39:12.901Z,0.00
2019-03-06T00:40:12.903Z,0.00
2019-03-06T00:41:12.894Z,0.00
2019-03-06T00:42:12.866Z,0.00
2019-03-06T00:43:12.858Z,0.00
2019-03-06T00:44:12.849Z,0.00
2019-03-06T00:45:12.832Z,0.00
2019-03-06T00:46:13.161Z,0.00
2019-03-06T00:47:12.799Z,0.00
2019-03-06T00:48:13.173Z,0.00
2019-03-06T00:49:12.795Z,0.00
2019-03-06T00:50:12.789Z,0.00
2019-03-06T00:51:13.169Z,0.00
2019-03-06T00:52:12.748Z,0.00
2019-03-06T00:53:12.743Z,0.00
2019-03-06T00:54:12.727Z,0.00
2019-03-06T00:55:12.711Z,0.00
2019-03-06T00:56:13.152Z,0.00
2019-03-06T00:57:12.696Z,0.00
2019-03-06T00:58:12.678Z,0.00
2019-03-06T00:59:12.671Z,0.00
2019-03-06T01:00:12.657Z,0.00
2019-03-06T01:01:12.649Z,0.00
2019-03-06T01:02:13.143Z,0.00
2019-03-06T01:03:12.634Z,0.00
2019-03-06T01:04:12.615Z,0.00
2019-03-06T01:05:12.606Z,0.00
2019-03-06T01:06:12.594Z,0.00
2019-03-06T01:07:12.641Z,0.00
2019-03-06T01:08:12.575Z,0.00
2019-03-06T01:09:12.574Z,0.00
2019-03-06T01:10:12.664Z,0.00
2019-03-06T01:11:12.550Z,0.00
2019-03-06T01:12:12.541Z,0.00
2019-03-06T01:13:12.542Z,0.00
2019-03-06T01:14:12.509Z,0.00
2019-03-06T01:15:12.510Z,0.00
2019-03-06T01:16:12.495Z,0.00
2019-03-06T01:17:12.471Z,0.00
2019-03-06T01:18:12.465Z,0.00
2019-03-06T01:19:12.469Z,0.00
2019-03-06T01:20:12.442Z,0.00
2019-03-06T01:21:12.445Z,0.00
2019-03-06T01:22:12.423Z,0.00
2019-03-06T01:23:12.413Z,0.00
2019-03-06T01:24:12.412Z,0.00
2019-03-06T01:25:12.387Z,0.00
2019-03-06T01:26:12.372Z,0.00
2019-03-06T01:27:12.376Z,0.00
2019-03-06T01:28:12.360Z,0.00
2019-03-06T01:29:12.370Z,0.00
2019-03-06T01:30:12.330Z,0.00
2019-03-06T01:31:12.322Z,0.00
2019-03-06T01:32:12.311Z,0.00
2019-03-06T01:33:12.664Z,0.00
2019-03-06T01:34:12.320Z,0.00
2019-03-06T01:35:12.275Z,0.00
2019-03-06T01:36:12.272Z,0.00
2019-03-06T01:37:12.661Z,0.00
2019-03-06T01:38:12.253Z,0.00
2019-03-06T01:39:12.233Z,0.00
2019-03-06T01:40:12.237Z,0.00
2019-03-06T01:41:12.215Z,0.00
2019-03-06T01:42:12.663Z,0.00
2019-03-06T01:43:12.194Z,0.00
2019-03-06T01:44:12.175Z,0.00
2019-03-06T01:45:12.187Z,0.00
2019-03-06T01:46:12.173Z,0.00
2019-03-06T01:47:12.146Z,0.00
2019-03-06T01:48:12.169Z,0.00
2019-03-06T01:49:12.133Z,0.00
2019-03-06T01:50:12.126Z,0.00
2019-03-06T01:51:12.120Z,0.00
2019-03-06T01:52:12.096Z,0.00
2019-03-06T01:53:12.163Z,0.00
2019-03-06T01:54:12.070Z,0.00
2019-03-06T01:55:12.063Z,0.00
2019-03-06T01:56:12.051Z,0.00
2019-03-06T01:57:12.045Z,0.00
2019-03-06T01:58:12.046Z,0.00
2019-03-06T01:59:12.016Z,0.00
2019-03-06T02:00:12.003Z,0.00
2019-03-06T02:01:12.171Z,0.00
2019-03-06T02:02:11.986Z,0.00
2019-03-06T02:03:11.986Z,0.00
2019-03-06T02:04:11.967Z,0.00
2019-03-06T02:05:11.946Z,0.00
2019-03-06T02:06:11.936Z,0.00
2019-03-06T02:07:11.940Z,0.00
2019-03-06T02:08:11.956Z,0.00
2019-03-06T02:09:11.910Z,0.00
2019-03-06T02:10:11.895Z,0.00
2019-03-06T02:11:11.882Z,0.00
2019-03-06T02:12:11.882Z,0.00
2019-03-06T02:13:11.877Z,0.00
2019-03-06T02:14:11.861Z,0.00
2019-03-06T02:15:11.846Z,0.00
2019-03-06T02:16:11.836Z,0.00
2019-03-06T02:17:11.819Z,0.00
2019-03-06T02:18:11.806Z,0.00
2019-03-06T02:19:11.829Z,0.00
2019-03-06T02:20:11.827Z,0.00
2019-03-06T02:21:11.789Z,0.00
2019-03-06T02:22:12.187Z,0.00
2019-03-06T02:23:12.219Z,0.00
2019-03-06T02:24:11.743Z,0.00
2019-03-06T02:25:11.730Z,0.00
2019-03-06T02:26:11.725Z,0.00
2019-03-06T02:27:11.709Z,0.00
2019-03-06T02:28:12.176Z,0.00
2019-03-06T02:29:11.700Z,0.00
2019-03-06T02:30:11.682Z,0.00
2019-03-06T02:31:11.665Z,0.00
2019-03-06T02:32:11.683Z,0.00
2019-03-06T02:33:11.659Z,0.00
2019-03-06T02:34:11.676Z,0.00
2019-03-06T02:35:11.624Z,0.00
2019-03-06T02:36:12.244Z,0.00
2019-03-06T02:37:11.699Z,0.00
2019-03-06T02:38:11.594Z,0.00
2019-03-06T02:39:11.699Z,0.00
2019-03-06T02:40:11.567Z,0.00
2019-03-06T02:41:11.555Z,0.00
2019-03-06T02:42:11.550Z,0.00
2019-03-06T02:43:11.548Z,0.00
2019-03-06T02:44:11.556Z,0.00
2019-03-06T02:45:11.515Z,0.00
2019-03-06T02:46:11.503Z,0.00
2019-03-06T02:47:11.489Z,0.00
2019-03-06T02:48:11.482Z,0.00
2019-03-06T02:49:11.514Z,0.00
2019-03-06T02:50:11.457Z,0.00
2019-03-06T02:51:11.460Z,0.00
2019-03-06T02:52:11.439Z,0.00
2019-03-06T02:53:11.440Z,0.00
2019-03-06T02:54:11.705Z,0.00
2019-03-06T02:55:11.417Z,0.00
2019-03-06T02:56:11.395Z,0.00
2019-03-06T02:57:11.383Z,0.00
2019-03-06T02:58:11.382Z,0.00
2019-03-06T02:59:11.670Z,0.00
2019-03-06T03:00:11.359Z,0.00
2019-03-06T03:01:11.342Z,0.00
2019-03-06T03:02:11.331Z,0.00
2019-03-06T03:03:11.680Z,0.00
2019-03-06T03:04:11.318Z,0.00
2019-03-06T03:05:11.304Z,0.00
2019-03-06T03:06:11.684Z,0.00
2019-03-06T03:07:11.311Z,0.00
2019-03-06T03:08:11.268Z,0.00
2019-03-06T03:09:11.261Z,0.00
2019-03-06T03:10:11.245Z,0.00
2019-03-06T03:11:11.685Z,0.00
2019-03-06T03:12:11.241Z,0.00
2019-03-06T03:13:11.207Z,0.00
2019-03-06T03:14:11.696Z,0.00
2019-03-06T03:15:11.191Z,0.00
2019-03-06T03:16:11.173Z,0.00
2019-03-06T03:17:11.170Z,0.00
2019-03-06T03:18:11.158Z,0.00
2019-03-06T03:19:11.185Z,0.00
2019-03-06T03:20:11.159Z,0.00
2019-03-06T03:21:11.129Z,0.00
2019-03-06T03:22:11.166Z,0.00
2019-03-06T03:23:11.118Z,0.00
2019-03-06T03:24:11.117Z,0.00
2019-03-06T03:25:11.086Z,0.00
2019-03-06T03:26:11.079Z,0.00
2019-03-06T03:27:11.067Z,0.00
2019-03-06T03:28:11.055Z,0.00
2019-03-06T03:29:11.209Z,0.00
2019-03-06T03:30:11.025Z,0.00
2019-03-06T03:31:11.035Z,0.00
2019-03-06T03:32:11.007Z,0.00
2019-03-06T03:33:10.990Z,0.00
2019-03-06T03:34:11.195Z,0.00
2019-03-06T03:35:10.975Z,0.00
2019-03-06T03:36:10.964Z,0.00
2019-03-06T03:37:10.950Z,0.00
2019-03-06T03:38:10.936Z,0.00
2019-03-06T03:39:10.926Z,0.00
2019-03-06T03:40:11.205Z,0.00
2019-03-06T03:41:10.913Z,0.00
2019-03-06T03:42:10.902Z,0.00
2019-03-06T03:43:10.879Z,0.00
2019-03-06T03:44:10.866Z,0.00
2019-03-06T03:45:10.870Z,0.00
2019-03-06T03:46:10.875Z,0.00
2019-03-06T03:47:10.845Z,0.00
2019-03-06T03:48:10.829Z,0.00
2019-03-06T03:49:10.825Z,0.00
2019-03-06T03:50:10.801Z,0.00
2019-03-06T03:51:10.813Z,0.00
2019-03-06T03:52:10.791Z,0.00
2019-03-06T03:53:10.771Z,0.00
2019-03-06T03:54:10.758Z,0.00
2019-03-06T03:55:10.751Z,0.00
2019-03-06T03:56:10.752Z,0.00
2019-03-06T03:57:10.744Z,0.00
2019-03-06T03:58:10.725Z,0.00
2019-03-06T03:59:10.734Z,0.00
2019-03-06T04:00:10.699Z,0.00
2019-03-06T04:01:10.706Z,0.00
2019-03-06T04:02:10.674Z,0.00
2019-03-06T04:03:10.662Z,0.00
2019-03-06T04:04:10.665Z,0.00
2019-03-06T04:05:10.643Z,0.00
2019-03-06T04:06:10.641Z,0.00
2019-03-06T04:07:10.698Z,0.00
2019-03-06T04:08:10.711Z,0.00
2019-03-06T04:09:10.644Z,0.00
2019-03-06T04:10:10.613Z,0.00
2019-03-06T04:11:10.725Z,0.00
2019-03-06T04:12:10.567Z,0.00
2019-03-06T04:13:10.555Z,0.00
2019-03-06T04:14:10.557Z,0.00
2019-03-06T04:15:10.541Z,0.00
2019-03-06T04:16:10.562Z,0.00
2019-03-06T04:17:10.509Z,0.00
2019-03-06T04:18:10.499Z,0.00
2019-03-06T04:19:10.492Z,0.00
2019-03-06T04:20:10.485Z,0.00
2019-03-06T04:21:10.485Z,0.00
2019-03-06T04:22:10.475Z,0.00
2019-03-06T04:23:10.477Z,0.00
2019-03-06T04:24:10.440Z,0.00
2019-03-06T04:25:10.432Z,0.00
2019-03-06T04:26:10.418Z,0.00
2019-03-06T04:27:10.419Z,0.00
2019-03-06T04:28:10.705Z,0.00
2019-03-06T04:29:10.381Z,0.00
2019-03-06T04:30:10.371Z,0.00
2019-03-06T04:31:10.356Z,0.00
2019-03-06T04:32:10.359Z,0.00
2019-03-06T04:33:10.706Z,0.00
2019-03-06T04:34:10.352Z,0.00
2019-03-06T04:35:10.328Z,0.00
2019-03-06T04:36:10.316Z,0.00
2019-03-06T04:37:10.306Z,0.00
2019-03-06T04:38:10.754Z,0.00
2019-03-06T04:39:10.281Z,0.00
2019-03-06T04:40:10.260Z,0.00
2019-03-06T04:41:10.252Z,0.00
2019-03-06T04:42:10.730Z,0.00
2019-03-06T04:43:10.235Z,0.00
2019-03-06T04:44:10.239Z,0.00
2019-03-06T04:45:10.218Z,0.00
2019-03-06T04:46:10.204Z,0.00
2019-03-06T04:47:10.201Z,0.00
2019-03-06T04:48:10.172Z,0.00
2019-03-06T04:49:10.161Z,0.00
2019-03-06T04:50:10.226Z,0.00
2019-03-06T04:51:10.139Z,0.00
2019-03-06T04:52:10.130Z,0.00
2019-03-06T04:53:10.123Z,0.00
2019-03-06T04:54:10.230Z,0.00
2019-03-06T04:55:10.124Z,0.00
2019-03-06T04:56:10.099Z,0.00
2019-03-06T04:57:10.089Z,0.00
2019-03-06T04:58:10.085Z,0.00
2019-03-06T04:59:10.214Z,0.00
2019-03-06T05:00:10.049Z,0.00
2019-03-06T05:01:10.051Z,0.00
2019-03-06T05:02:10.026Z,0.00
2019-03-06T05:03:10.037Z,0.00
2019-03-06T05:04:10.007Z,0.00
2019-03-06T05:05:09.990Z,0.00
2019-03-06T05:06:09.998Z,0.00
2019-03-06T05:07:10.004Z,0.00
2019-03-06T05:08:09.962Z,0.00
2019-03-06T05:09:09.955Z,0.00
2019-03-06T05:10:09.943Z,0.00
2019-03-06T05:11:09.925Z,0.00
2019-03-06T05:12:09.940Z,0.00
2019-03-06T05:13:09.941Z,0.00
2019-03-06T05:14:09.928Z,0.00
2019-03-06T05:15:09.896Z,0.00
2019-03-06T05:16:10.699Z,0.00
2019-03-06T05:17:09.883Z,0.00
2019-03-06T05:18:09.874Z,0.00
2019-03-06T05:19:09.866Z,0.00
2019-03-06T05:20:09.841Z,0.00
2019-03-06T05:21:09.826Z,0.00
2019-03-06T05:22:09.821Z,0.00
2019-03-06T05:23:10.222Z,0.00
2019-03-06T05:24:09.791Z,0.00
2019-03-06T05:25:09.787Z,0.00
2019-03-06T05:26:09.780Z,0.00
2019-03-06T05:27:09.764Z,0.00
2019-03-06T05:28:09.764Z,0.00
2019-03-06T05:29:09.754Z,0.00
2019-03-06T05:30:09.731Z,0.00
2019-03-06T05:31:09.718Z,0.00
2019-03-06T05:32:10.224Z,0.00
2019-03-06T05:33:09.696Z,0.00
2019-03-06T05:34:09.705Z,0.00
2019-03-06T05:35:09.695Z,0.00
2019-03-06T05:36:09.670Z,0.00
2019-03-06T05:37:09.661Z,0.00
2019-03-06T05:38:09.674Z,0.00
2019-03-06T05:39:09.633Z,0.00
2019-03-06T05:40:09.621Z,0.00
2019-03-06T05:41:09.628Z,0.00
2019-03-06T05:42:10.206Z,0.00
2019-03-06T05:43:09.613Z,0.00
2019-03-06T05:44:09.578Z,0.00
2019-03-06T05:45:09.875Z,0.00
2019-03-06T05:46:10.007Z,0.00
2019-03-06T05:47:09.561Z,0.00
2019-03-06T05:48:09.732Z,0.00
2019-03-06T05:49:09.738Z,0.00
2019-03-06T05:50:09.728Z,0.00
2019-03-06T05:51:09.501Z,0.00
2019-03-06T05:52:09.718Z,0.00
2019-03-06T05:53:10.479Z,0.00
2019-03-06T05:54:12.898Z,0.00
2019-03-06T05:55:09.462Z,0.00
2019-03-06T05:56:09.450Z,0.00
2019-03-06T05:57:09.450Z,0.00
2019-03-06T05:58:09.439Z,0.00
2019-03-06T05:59:09.422Z,0.00
2019-03-06T06:00:09.743Z,0.00
2019-03-06T06:01:09.462Z,0.00
2019-03-06T06:02:09.696Z,0.00
2019-03-06T06:03:10.389Z,0.00
2019-03-06T06:04:09.377Z,0.00
2019-03-06T06:05:09.724Z,0.00
2019-03-06T06:06:09.372Z,0.00
2019-03-06T06:07:09.341Z,0.00
2019-03-06T06:08:09.321Z,0.00
2019-03-06T06:09:09.309Z,0.00
2019-03-06T06:10:09.303Z,0.00
2019-03-06T06:11:09.299Z,0.00
2019-03-06T06:12:10.236Z,0.00
2019-03-06T06:13:09.289Z,0.00
2019-03-06T06:14:09.272Z,4.00
2019-03-06T06:15:10.217Z,4.00
2019-03-06T06:16:10.618Z,8.00
2019-03-06T06:17:09.758Z,8.00
2019-03-06T06:18:09.216Z,8.00
2019-03-06T06:19:09.725Z,12.00
2019-03-06T06:20:09.194Z,12.00
2019-03-06T06:21:09.182Z,8.00
2019-03-06T06:22:09.245Z,8.00
2019-03-06T06:23:09.743Z,8.00
2019-03-06T06:24:09.148Z,12.00
2019-03-06T06:25:09.137Z,12.00
2019-03-06T06:26:09.131Z,12.00
2019-03-06T06:27:09.735Z,12.00
2019-03-06T06:28:09.727Z,12.00
2019-03-06T06:29:09.741Z,12.00
2019-03-06T06:30:09.096Z,8.00
2019-03-06T06:31:09.071Z,12.00
2019-03-06T06:32:09.067Z,12.00
2019-03-06T06:33:09.054Z,12.00
2019-03-06T06:34:09.238Z,12.00
2019-03-06T06:35:09.234Z,12.00
2019-03-06T06:36:09.033Z,12.00
2019-03-06T06:37:09.266Z,16.00
2019-03-06T06:38:09.018Z,12.00
2019-03-06T06:39:09.246Z,12.00
2019-03-06T06:40:08.991Z,12.00
2019-03-06T06:41:08.968Z,16.00
2019-03-06T06:42:08.952Z,16.00
2019-03-06T06:43:08.949Z,12.00
2019-03-06T06:44:09.239Z,16.00
2019-03-06T06:45:08.923Z,16.00
2019-03-06T06:46:08.932Z,16.00
2019-03-06T06:47:09.236Z,16.00
2019-03-06T06:48:08.890Z,16.00
2019-03-06T06:49:08.886Z,16.00
2019-03-06T06:50:08.876Z,20.00
2019-03-06T06:51:09.249Z,16.00
2019-03-06T06:52:08.854Z,20.00
2019-03-06T06:53:09.736Z,16.00
2019-03-06T06:54:08.836Z,20.00
2019-03-06T06:55:08.819Z,24.00
2019-03-06T06:56:10.124Z,20.00
2019-03-06T06:57:08.801Z,20.00
2019-03-06T06:58:08.786Z,24.00
2019-03-06T06:59:08.777Z,24.00
2019-03-06T07:00:08.781Z,20.00
2019-03-06T07:01:08.766Z,20.00
2019-03-06T07:02:08.739Z,24.00
2019-03-06T07:03:08.743Z,24.00
2019-03-06T07:04:08.719Z,24.00
2019-03-06T07:05:08.755Z,24.00
2019-03-06T07:06:09.240Z,24.00
2019-03-06T07:07:09.255Z,24.00
2019-03-06T07:08:08.759Z,24.00
2019-03-06T07:09:08.676Z,24.00
2019-03-06T07:10:09.239Z,24.00
2019-03-06T07:11:09.230Z,24.00
2019-03-06T07:12:10.262Z,20.00
2019-03-06T07:13:08.644Z,24.00
2019-03-06T07:14:09.235Z,20.00
2019-03-06T07:15:09.239Z,20.00
2019-03-06T07:16:09.244Z,20.00
2019-03-06T07:17:09.234Z,16.00
2019-03-06T07:18:08.571Z,16.00
2019-03-06T07:19:09.250Z,20.00
2019-03-06T07:20:10.290Z,20.00
2019-03-06T07:21:09.242Z,20.00
2019-03-06T07:22:09.865Z,20.00
2019-03-06T07:23:08.527Z,20.00
2019-03-06T07:24:10.808Z,24.00
2019-03-06T07:25:09.618Z,20.00
2019-03-06T07:26:09.231Z,20.00
2019-03-06T07:27:09.253Z,20.00
2019-03-06T07:28:08.785Z,24.00
2019-03-06T07:29:08.464Z,20.00
2019-03-06T07:30:09.230Z,20.00
2019-03-06T07:31:09.325Z,24.00
2019-03-06T07:32:09.236Z,20.00
2019-03-06T07:33:09.232Z,24.00
2019-03-06T07:34:08.394Z,24.00
2019-03-06T07:35:11.924Z,20.00
2019-03-06T07:36:09.401Z,20.00
2019-03-06T07:37:12.105Z,24.00
2019-03-06T07:38:11.251Z,24.00
2019-03-06T07:39:09.344Z,24.00
2019-03-06T07:40:09.266Z,24.00
2019-03-06T07:41:10.288Z,24.00
2019-03-06T07:42:09.269Z,20.00
2019-03-06T07:43:09.237Z,24.00
2019-03-06T07:44:09.284Z,28.00
2019-03-06T07:45:10.099Z,28.00
2019-03-06T07:46:09.250Z,28.00
2019-03-06T07:47:09.244Z,28.00
2019-03-06T07:48:10.445Z,32.00
2019-03-06T07:49:08.281Z,28.00
2019-03-06T07:50:08.233Z,32.00
2019-03-06T07:51:08.769Z,28.00
2019-03-06T07:52:08.738Z,36.00
2019-03-06T07:53:08.765Z,36.00
2019-03-06T07:54:08.297Z,36.00
2019-03-06T07:55:08.187Z,36.00
2019-03-06T07:56:08.175Z,36.00
2019-03-06T07:57:08.750Z,40.00
2019-03-06T07:58:08.766Z,44.00
2019-03-06T07:59:08.776Z,48.00
2019-03-06T08:00:08.146Z,52.00
2019-03-06T08:01:17.044Z,52.00
2019-03-06T08:02:09.746Z,56.00
2019-03-06T08:03:08.766Z,60.00
2019-03-06T08:04:08.758Z,68.00
2019-03-06T08:05:08.277Z,64.00
2019-03-06T08:06:08.742Z,68.00
2019-03-06T08:07:08.742Z,60.00
2019-03-06T08:08:08.741Z,56.00
2019-03-06T08:09:08.769Z,52.00
2019-03-06T08:10:08.266Z,56.00
2019-03-06T08:11:08.744Z,52.00
2019-03-06T08:12:08.746Z,52.00
2019-03-06T08:13:10.462Z,56.00
2019-03-06T08:14:22.116Z,60.00
2019-03-06T08:15:09.815Z,60.00
2019-03-06T08:16:10.255Z,60.00
2019-03-06T08:17:24.989Z,64.00
2019-03-06T08:20:56.965Z,64.00
2019-03-06T08:24:19.762Z,76.00
2019-03-06T08:25:20.712Z,80.00
2019-03-06T08:26:19.747Z,84.00
2019-03-06T08:27:20.577Z,76.00
2019-03-06T08:28:20.724Z,80.00
2019-03-06T08:29:20.582Z,80.00
2019-03-06T08:30:22.411Z,88.00
2019-03-06T08:31:22.583Z,84.00
2019-03-06T08:32:20.586Z,84.00
2019-03-06T08:33:28.113Z,88.00
2019-03-06T08:34:25.223Z,96.00
2019-03-06T08:35:25.208Z,96.00
2019-03-06T08:36:24.563Z,100.00
2019-03-06T08:37:26.021Z,100.00
2019-03-06T08:38:21.766Z,100.00
2019-03-06T08:39:23.737Z,100.00
2019-03-06T08:40:24.135Z,100.00
2019-03-06T08:41:22.133Z,104.00
2019-03-06T08:42:23.602Z,104.00
2019-03-06T08:43:21.257Z,104.00
2019-03-06T08:44:20.089Z,104.00
2019-03-06T08:45:20.465Z,104.00
2019-03-06T08:46:20.113Z,100.00
2019-03-06T08:47:25.087Z,100.00
2019-03-06T08:48:20.335Z,100.00
2019-03-06T08:49:21.759Z,100.00
2019-03-06T08:50:34.427Z,92.00
2019-03-06T08:51:19.650Z,88.00
2019-03-06T08:52:19.586Z,76.00
2019-03-06T08:53:20.136Z,72.00
2019-03-06T08:54:19.724Z,72.00
2019-03-06T08:55:22.093Z,72.00
2019-03-06T08:56:20.088Z,68.00
2019-03-06T08:57:22.117Z,72.00
2019-03-06T08:58:20.397Z,72.00
2019-03-06T08:59:19.391Z,76.00
2019-03-06T09:00:20.112Z,80.00
2019-03-06T09:01:19.639Z,88.00
2019-03-06T09:02:20.351Z,92.00
2019-03-06T09:03:19.332Z,100.00
2019-03-06T09:04:20.107Z,112.00
2019-03-06T09:05:19.651Z,120.00
2019-03-06T09:06:20.199Z,120.00
2019-03-06T09:07:20.105Z,120.00
2019-03-06T09:08:20.138Z,116.00
2019-03-06T09:09:19.648Z,120.00
2019-03-06T09:10:20.092Z,116.00
2019-03-06T09:11:19.611Z,116.00
2019-03-06T09:12:20.116Z,112.00
2019-03-06T09:13:19.215Z,108.00
2019-03-06T09:14:22.132Z,108.00
2019-03-06T09:15:20.094Z,112.00
2019-03-06T09:16:20.108Z,116.00
2019-03-06T09:17:20.126Z,112.00
2019-03-06T09:18:20.100Z,116.00
2019-03-06T09:19:20.106Z,112.00
2019-03-06T09:20:20.184Z,112.00
2019-03-06T09:21:22.691Z,104.00
2019-03-06T09:22:20.095Z,104.00
2019-03-06T09:23:23.144Z,100.00
2019-03-06T09:24:19.632Z,96.00
2019-03-06T09:25:19.612Z,92.00
2019-03-06T09:26:19.661Z,96.00
2019-03-06T09:27:19.599Z,96.00
2019-03-06T09:28:20.657Z,88.00
2019-03-06T09:29:19.046Z,84.00
2019-03-06T09:30:19.836Z,88.00
2019-03-06T09:31:19.599Z,84.00
2019-03-06T09:32:19.659Z,84.00
2019-03-06T09:33:19.232Z,84.00
2019-03-06T09:34:21.346Z,84.00
2019-03-06T09:35:19.619Z,84.00
2019-03-06T09:36:19.627Z,84.00
2019-03-06T09:37:19.603Z,80.00
2019-03-06T09:38:19.174Z,80.00
2019-03-06T09:39:19.610Z,80.00
2019-03-06T09:40:18.936Z,76.00
2019-03-06T09:41:20.189Z,80.00
2019-03-06T09:42:19.602Z,76.00
2019-03-06T09:43:20.612Z,80.00
2019-03-06T09:44:23.594Z,80.00
2019-03-06T09:45:18.900Z,80.00
2019-03-06T09:46:19.634Z,80.00
2019-03-06T09:47:19.605Z,80.00
2019-03-06T09:48:19.658Z,76.00
2019-03-06T09:49:19.646Z,72.00
2019-03-06T09:50:19.721Z,76.00
2019-03-06T09:51:19.618Z,76.00
2019-03-06T09:52:19.621Z,76.00
2019-03-06T09:53:19.133Z,76.00
2019-03-06T09:54:19.613Z,76.00
2019-03-06T09:55:19.604Z,76.00
2019-03-06T09:56:19.620Z,80.00
2019-03-06T09:57:19.618Z,76.00
2019-03-06T09:58:19.142Z,80.00
2019-03-06T09:59:19.612Z,80.00
2019-03-06T10:00:19.609Z,84.00
2019-03-06T10:01:19.143Z,88.00
2019-03-06T10:02:19.609Z,92.00
2019-03-06T10:03:19.621Z,92.00
2019-03-06T10:04:19.691Z,96.00
2019-03-06T10:05:19.127Z,92.00
2019-03-06T10:06:18.653Z,96.00
2019-03-06T10:07:19.615Z,116.00
2019-03-06T10:08:19.125Z,120.00
2019-03-06T10:09:19.115Z,116.00
2019-03-06T10:10:19.137Z,108.00
2019-03-06T10:11:20.188Z,100.00
2019-03-06T10:12:19.115Z,96.00
2019-03-06T10:13:18.630Z,88.00
2019-03-06T10:14:18.638Z,80.00
2019-03-06T10:15:19.114Z,76.00
2019-03-06T10:16:18.538Z,76.00
2019-03-06T10:17:21.131Z,76.00
2019-03-06T10:18:19.260Z,80.00
2019-03-06T10:19:19.136Z,80.00
2019-03-06T10:20:25.030Z,80.00
2019-03-06T10:21:20.149Z,88.00
2019-03-06T10:22:19.158Z,92.00
2019-03-06T10:23:19.142Z,88.00
2019-03-06T10:24:19.844Z,88.00
2019-03-06T10:25:19.122Z,92.00
2019-03-06T10:26:19.141Z,92.00
2019-03-06T10:27:19.114Z,96.00
2019-03-06T10:28:39.471Z,96.00
2019-03-06T10:29:18.429Z,104.00
2019-03-06T10:30:18.832Z,104.00
2019-03-06T10:31:18.374Z,104.00
2019-03-06T10:32:18.368Z,100.00
2019-03-06T10:33:19.131Z,100.00
2019-03-06T10:34:19.133Z,96.00
2019-03-06T10:35:18.348Z,96.00
2019-03-06T10:36:19.136Z,100.00
2019-03-06T10:37:18.344Z,100.00
2019-03-06T10:38:18.347Z,100.00
2019-03-06T10:39:19.127Z,100.00
2019-03-06T10:40:18.661Z,100.00
2019-03-06T10:41:18.297Z,100.00
2019-03-06T10:42:18.263Z,100.00
2019-03-06T10:43:23.704Z,96.00
2019-03-06T10:44:19.243Z,96.00
2019-03-06T10:45:18.663Z,96.00
2019-03-06T10:46:19.123Z,96.00
2019-03-06T10:47:18.652Z,96.00
2019-03-06T10:48:18.748Z,92.00
2019-03-06T10:49:19.160Z,88.00
2019-03-06T10:50:26.359Z,88.00
2019-03-06T10:51:20.128Z,84.00
2019-03-06T10:52:19.131Z,88.00
2019-03-06T10:53:18.688Z,88.00
2019-03-06T10:54:19.133Z,88.00
2019-03-06T10:55:18.865Z,88.00
2019-03-06T10:56:19.670Z,88.00
2019-03-06T10:57:25.141Z,88.00
2019-03-06T10:58:22.163Z,92.00
2019-03-06T10:59:18.427Z,100.00
2019-03-06T11:00:19.659Z,108.00
2019-03-06T11:01:20.250Z,112.00
2019-03-06T11:02:41.871Z,116.00
2019-03-06T11:03:18.030Z,120.00
2019-03-06T11:04:24.001Z,120.00
2019-03-06T11:05:19.895Z,116.00
2019-03-06T11:06:19.663Z,108.00
2019-03-06T11:07:20.869Z,104.00
2019-03-06T11:08:25.043Z,96.00
2019-03-06T11:09:19.023Z,92.00
2019-03-06T11:10:24.507Z,88.00
2019-03-06T11:11:22.241Z,84.00
2019-03-06T11:12:18.154Z,88.00
2019-03-06T11:13:18.637Z,88.00
2019-03-06T11:14:19.095Z,88.00
2019-03-06T11:15:19.095Z,92.00
2019-03-06T11:16:18.631Z,100.00
2019-03-06T11:17:22.340Z,96.00
2019-03-06T11:18:18.823Z,96.00
2019-03-06T11:19:21.877Z,88.00
2019-03-06T11:20:18.687Z,88.00
2019-03-06T11:21:19.362Z,88.00
2019-03-06T11:22:18.908Z,88.00
2019-03-06T11:23:18.634Z,92.00
2019-03-06T11:24:18.644Z,96.00
2019-03-06T11:25:18.820Z,100.00
2019-03-06T11:26:18.647Z,96.00
2019-03-06T11:27:18.735Z,96.00
2019-03-06T11:28:18.660Z,92.00
2019-03-06T11:29:19.487Z,92.00
2019-03-06T11:30:21.213Z,92.00
2019-03-06T11:31:19.288Z,92.00
2019-03-06T11:32:18.637Z,92.00
2019-03-06T11:33:18.744Z,96.00
2019-03-06T11:34:21.724Z,92.00
2019-03-06T11:35:17.761Z,92.00
2019-03-06T11:36:20.664Z,92.00
2019-03-06T11:37:18.646Z,96.00
2019-03-06T11:38:18.643Z,96.00
2019-03-06T11:39:18.669Z,92.00
2019-03-06T11:40:17.700Z,100.00
2019-03-06T11:41:18.181Z,100.00
2019-03-06T11:42:18.152Z,104.00
2019-03-06T11:43:18.153Z,104.00
2019-03-06T11:44:18.173Z,100.00
2019-03-06T11:45:17.661Z,100.00
2019-03-06T11:46:18.152Z,96.00
2019-03-06T11:47:18.150Z,96.00
2019-03-06T11:48:18.180Z,100.00
2019-03-06T11:49:19.625Z,112.00
2019-03-06T11:50:17.546Z,108.00
2019-03-06T11:51:20.162Z,96.00
2019-03-06T11:52:19.115Z,88.00
2019-03-06T11:53:18.157Z,80.00
2019-03-06T11:54:19.209Z,76.00
2019-03-06T11:55:19.165Z,76.00
2019-03-06T11:56:25.126Z,76.00
2019-03-06T11:57:23.121Z,84.00
2019-03-06T11:58:51.162Z,92.00
2019-03-06T11:59:19.023Z,100.00
2019-03-06T12:00:23.136Z,104.00
2019-03-06T12:01:20.022Z,108.00
2019-03-06T12:02:19.141Z,112.00
2019-03-06T12:03:23.928Z,108.00
2019-03-06T12:04:24.641Z,108.00
2019-03-06T12:05:22.269Z,104.00
2019-03-06T12:06:23.712Z,100.00
2019-03-06T12:07:24.509Z,100.00
2019-03-06T12:08:21.185Z,104.00
2019-03-06T12:09:20.383Z,104.00
2019-03-06T12:10:20.448Z,104.00
2019-03-06T12:11:20.763Z,100.00
2019-03-06T12:12:19.229Z,96.00
2019-03-06T12:13:31.789Z,92.00
2019-03-06T12:14:20.732Z,92.00
2019-03-06T12:15:18.176Z,96.00
2019-03-06T12:16:18.794Z,96.00
2019-03-06T12:17:20.317Z,92.00
2019-03-06T12:18:18.174Z,88.00
2019-03-06T12:19:20.258Z,88.00
2019-03-06T12:20:21.164Z,92.00
2019-03-06T12:21:20.402Z,88.00
2019-03-06T12:22:21.656Z,92.00
2019-03-06T12:24:43.351Z,104.00
2019-03-06T12:25:41.640Z,112.00
2019-03-06T12:26:38.719Z,112.00
2019-03-06T12:27:39.854Z,108.00
2019-03-06T12:28:45.151Z,100.00
2019-03-06T12:29:55.237Z,96.00
2019-03-06T12:30:45.428Z,92.00
2019-03-06T12:31:41.448Z,88.00
2019-03-06T12:32:42.639Z,84.00
2019-03-06T12:33:39.153Z,84.00
2019-03-06T12:34:39.144Z,88.00
2019-03-06T12:35:41.850Z,84.00
2019-03-06T12:36:39.702Z,80.00
2019-03-06T12:37:46.838Z,76.00
2019-03-06T12:38:40.918Z,72.00
2019-03-06T12:39:37.170Z,72.00
2019-03-06T12:40:40.656Z,72.00
2019-03-06T12:41:44.492Z,68.00
2019-03-06T12:42:39.669Z,68.00
2019-03-06T12:43:37.843Z,68.00
2019-03-06T12:44:41.006Z,72.00
2019-03-06T12:45:39.140Z,72.00
2019-03-06T12:46:41.521Z,76.00
2019-03-06T12:47:40.660Z,76.00
2019-03-06T12:48:40.976Z,76.00
2019-03-06T12:49:45.189Z,76.00
2019-03-06T12:50:40.697Z,72.00
2019-03-06T12:51:54.439Z,72.00
2019-03-06T12:54:04.428Z,68.00
2019-03-06T12:55:06.000Z,64.00
2019-03-06T12:56:23.005Z,64.00
2019-03-06T12:57:06.633Z,60.00
2019-03-06T12:58:05.868Z,64.00
2019-03-06T12:59:12.446Z,64.00
2019-03-06T13:00:02.921Z,60.00
2019-03-06T13:01:01.040Z,60.00
2019-03-06T13:02:00.270Z,52.00
2019-03-06T13:02:59.815Z,52.00
2019-03-06T13:04:00.562Z,48.00
2019-03-06T13:04:59.784Z,44.00
2019-03-06T13:05:59.417Z,44.00
2019-03-06T13:06:59.509Z,44.00
2019-03-06T13:08:02.124Z,44.00
2019-03-06T13:08:58.872Z,44.00
2019-03-06T13:09:59.491Z,48.00